Time;durP1;ratioP1;P1;durP2;ratioP2;P2;SDS_P1;SDS_P2;PMS_P1;PMS_P2;Temp;Humidity;BMP_temperature;BMP_pressure;BME280_temperature;BME280_humidity;BME280_pressure;Samples;Min_cycle;Max_cycle;Signal;HPM_P1;HPM_P2
2022/07/24 00:01:39;;;;;;;14.23;13.13;;;12.50;99.90;;;;;;5085276;28;20112;-76
2022/07/24 00:04:06;;;;;;;13.93;12.82;;;12.40;99.90;;;;;;5096876;28;20604;-77
2022/07/24 00:06:33;;;;;;;13.95;12.85;;;12.50;99.90;;;;;;5101636;28;20526;-76
2022/07/24 00:09:00;;;;;;;14.45;13.00;;;12.50;99.90;;;;;;5094825;28;20052;-76
2022/07/24 00:11:28;;;;;;;12.80;11.80;;;12.60;99.90;;;;;;5078447;28;20043;-76
2022/07/24 00:13:55;;;;;;;13.63;12.38;;;12.60;99.90;;;;;;5073851;28;20031;-77
2022/07/24 00:16:22;;;;;;;11.38;10.20;;;12.60;99.90;;;;;;5089605;28;20027;-77
2022/07/24 00:18:49;;;;;;;10.98;9.80;;;12.60;99.90;;;;;;5088294;28;20044;-77
2022/07/24 00:21:16;;;;;;;11.25;10.20;;;12.70;99.90;;;;;;5063327;28;20041;-77
2022/07/24 00:23:43;;;;;;;10.27;9.48;;;12.60;99.90;;;;;;5081346;28;20089;-77
2022/07/24 00:26:11;;;;;;;10.73;9.73;;;12.40;99.90;;;;;;5061313;28;20040;-75
2022/07/24 00:28:38;;;;;;;11.20;9.93;;;12.50;99.90;;;;;;5081360;28;20056;-75
2022/07/24 00:31:05;;;;;;;9.73;9.13;;;12.50;99.90;;;;;;5071087;28;20060;-75
2022/07/24 00:33:32;;;;;;;10.48;9.77;;;12.50;99.90;;;;;;5095979;28;20040;-75
2022/07/24 00:35:59;;;;;;;10.65;9.75;;;12.40;99.90;;;;;;5063363;28;20044;-76
2022/07/24 00:38:26;;;;;;;11.13;10.23;;;12.30;99.90;;;;;;5067707;28;20115;-75
2022/07/24 00:40:53;;;;;;;10.85;10.00;;;12.30;99.90;;;;;;5082896;28;20143;-75
2022/07/24 00:43:20;;;;;;;11.32;10.32;;;12.20;99.90;;;;;;5065316;28;20369;-75
2022/07/24 00:45:47;;;;;;;11.07;10.20;;;12.20;99.90;;;;;;5767780;22;20038;-78
2022/07/24 00:48:16;;;;;;;11.63;10.63;;;12.10;99.90;;;;;;6104755;23;20024;-78
2022/07/24 00:50:43;;;;;;;11.93;10.75;;;12.10;99.90;;;;;;6111243;23;20034;-79
2022/07/24 00:53:11;;;;;;;11.85;10.80;;;12.10;99.90;;;;;;6103599;23;20035;-80
2022/07/24 00:55:38;;;;;;;11.50;10.70;;;12.20;99.90;;;;;;6105012;23;20221;-79
2022/07/24 00:58:05;;;;;;;12.10;11.05;;;12.30;99.90;;;;;;6109824;23;20027;-78
2022/07/24 01:00:32;;;;;;;11.75;11.00;;;12.20;99.90;;;;;;6107854;23;20081;-78
2022/07/24 01:02:59;;;;;;;12.75;11.85;;;12.10;99.90;;;;;;6082955;23;20611;-79
2022/07/24 01:05:26;;;;;;;12.10;11.30;;;12.20;99.90;;;;;;6110051;23;20043;-80
2022/07/24 01:07:53;;;;;;;12.23;11.18;;;12.00;99.90;;;;;;6130804;23;20043;-78
2022/07/24 01:10:19;;;;;;;12.20;11.30;;;12.00;99.90;;;;;;6083758;23;20187;-79
2022/07/24 01:12:46;;;;;;;11.85;10.95;;;11.90;99.90;;;;;;6110613;23;20497;-79
2022/07/24 01:15:13;;;;;;;11.95;11.05;;;11.80;99.90;;;;;;6085080;23;20039;-79
2022/07/24 01:17:42;;;;;;;12.40;11.35;;;11.90;99.90;;;;;;6139098;23;20077;-80
2022/07/24 01:20:10;;;;;;;12.00;11.10;;;11.90;99.90;;;;;;6113086;23;20088;-78
2022/07/24 01:22:37;;;;;;;11.77;10.95;;;11.80;99.90;;;;;;6112218;23;20028;-78
2022/07/24 01:25:04;;;;;;;12.05;11.18;;;11.80;99.90;;;;;;6077312;23;20056;-79
2022/07/24 01:27:31;;;;;;;12.65;11.65;;;11.90;99.90;;;;;;6106935;23;20039;-78
2022/07/24 01:29:57;;;;;;;11.20;10.50;;;11.90;99.90;;;;;;6109675;23;20112;-78
2022/07/24 01:32:24;;;;;;;11.35;10.52;;;11.80;99.90;;;;;;6112468;23;20035;-79
2022/07/24 01:34:51;;;;;;;11.73;10.82;;;11.80;99.90;;;;;;6111334;23;20474;-78
2022/07/24 01:37:18;;;;;;;10.98;10.20;;;11.80;99.90;;;;;;6126406;23;20361;-79
2022/07/24 01:39:44;;;;;;;11.43;10.30;;;12.00;99.90;;;;;;6112335;23;20617;-78
2022/07/24 01:42:11;;;;;;;11.48;10.48;;;12.10;99.90;;;;;;6106548;23;20062;-78
2022/07/24 01:44:38;;;;;;;12.90;9.88;;;12.00;99.90;;;;;;6109017;23;20043;-81
2022/07/24 01:47:05;;;;;;;9.80;8.90;;;12.00;99.90;;;;;;6138767;23;20300;-78
2022/07/24 01:49:31;;;;;;;9.80;8.95;;;12.00;99.90;;;;;;6137194;23;20039;-78
2022/07/24 01:51:58;;;;;;;9.27;8.48;;;12.00;99.90;;;;;;6101772;23;20043;-78
2022/07/24 01:54:25;;;;;;;9.77;8.98;;;12.00;99.90;;;;;;6110401;23;20381;-79
2022/07/24 01:56:52;;;;;;;9.52;8.60;;;11.90;99.90;;;;;;6135849;23;20458;-79
2022/07/24 01:59:19;;;;;;;9.52;8.73;;;11.80;99.90;;;;;;6112656;23;20027;-78
2022/07/24 02:01:46;;;;;;;11.52;10.38;;;11.80;99.90;;;;;;6083652;23;20122;-79
2022/07/24 02:04:13;;;;;;;10.68;9.75;;;11.90;99.90;;;;;;6110071;23;20643;-79
2022/07/24 02:06:40;;;;;;;10.70;9.70;;;11.90;99.90;;;;;;6088215;23;20040;-79
2022/07/24 02:09:06;;;;;;;10.18;9.38;;;12.00;99.90;;;;;;6087714;23;20508;-78
2022/07/24 02:11:34;;;;;;;9.65;8.85;;;12.00;99.90;;;;;;6113321;23;20115;-78
2022/07/24 02:14:01;;;;;;;9.18;8.38;;;11.80;99.90;;;;;;6104609;23;20113;-76
2022/07/24 02:16:28;;;;;;;14.55;8.93;;;11.80;99.90;;;;;;6113842;23;20031;-77
2022/07/24 02:18:55;;;;;;;8.90;8.23;;;11.70;99.90;;;;;;6141372;23;20027;-76
2022/07/24 02:21:22;;;;;;;9.95;8.98;;;11.60;99.90;;;;;;6143651;23;20044;-76
2022/07/24 02:23:49;;;;;;;9.88;9.18;;;11.60;99.90;;;;;;6086938;23;20499;-75
2022/07/24 02:26:16;;;;;;;10.65;9.65;;;11.60;99.90;;;;;;6114042;23;20423;-75
2022/07/24 02:28:43;;;;;;;11.00;10.10;;;11.70;99.90;;;;;;6081451;23;20031;-77
2022/07/24 02:31:10;;;;;;;11.10;10.30;;;11.60;99.90;;;;;;6092915;23;20036;-77
2022/07/24 02:33:37;;;;;;;10.85;9.93;;;11.50;99.90;;;;;;6114038;23;20038;-78
2022/07/24 02:36:04;;;;;;;11.02;10.23;;;11.50;99.90;;;;;;6110696;23;20507;-76
2022/07/24 02:38:31;;;;;;;11.73;10.65;;;11.60;99.90;;;;;;6139215;23;20365;-78
2022/07/24 02:40:58;;;;;;;11.18;10.35;;;11.60;99.90;;;;;;6112475;23;20036;-78
2022/07/24 02:43:25;;;;;;;12.13;11.23;;;11.50;99.90;;;;;;6116329;23;20031;-78
2022/07/24 02:45:53;;;;;;;12.57;11.40;;;11.40;99.90;;;;;;6121025;23;20039;-77
2022/07/24 02:48:20;;;;;;;11.38;10.68;;;11.30;99.90;;;;;;6114770;23;20041;-77
2022/07/24 02:50:47;;;;;;;11.52;10.82;;;11.40;99.90;;;;;;6093921;23;20054;-76
2022/07/24 02:53:14;;;;;;;12.63;11.60;;;11.30;99.90;;;;;;6140507;23;20081;-77
2022/07/24 02:55:41;;;;;;;12.90;11.68;;;11.30;99.90;;;;;;6109809;23;20032;-78
2022/07/24 02:58:08;;;;;;;12.05;11.35;;;11.20;99.90;;;;;;6140419;23;20272;-77
2022/07/24 03:00:35;;;;;;;14.18;12.10;;;11.20;99.90;;;;;;6117977;23;20101;-79
2022/07/24 03:03:02;;;;;;;12.77;11.88;;;11.20;99.90;;;;;;6117620;23;20069;-76
2022/07/24 03:05:29;;;;;;;12.77;11.90;;;11.20;99.90;;;;;;6089519;23;20035;-79
2022/07/24 03:07:56;;;;;;;12.25;11.32;;;11.20;99.90;;;;;;6088395;23;20035;-77
2022/07/24 03:10:23;;;;;;;14.32;13.15;;;11.30;99.90;;;;;;6140420;23;20043;-79
2022/07/24 03:12:50;;;;;;;12.65;11.65;;;11.50;99.90;;;;;;6138188;23;20031;-77
2022/07/24 03:15:17;;;;;;;12.55;11.55;;;11.60;99.90;;;;;;6113612;23;20031;-78
2022/07/24 03:17:56;;;;;;;11.82;10.82;;;11.60;99.90;;;;;;6111540;23;20065;-78
2022/07/24 03:20:26;;;;;;;11.93;10.93;;;11.40;99.90;;;;;;6109906;23;20031;-77
2022/07/24 03:22:53;;;;;;;11.63;10.63;;;11.40;99.90;;;;;;6110025;23;20131;-77
2022/07/24 03:25:20;;;;;;;11.15;9.90;;;11.50;99.90;;;;;;6107318;23;20175;-77
2022/07/24 03:27:47;;;;;;;11.75;10.57;;;11.40;99.90;;;;;;6078599;23;20031;-76
2022/07/24 03:30:16;;;;;;;10.57;9.88;;;11.40;99.90;;;;;;6130054;23;20031;-77
2022/07/24 03:32:43;;;;;;;11.48;10.52;;;11.30;99.90;;;;;;6130852;23;20104;-77
2022/07/24 03:35:10;;;;;;;11.93;10.25;;;11.40;99.90;;;;;;6134073;23;20027;-77
2022/07/24 03:37:38;;;;;;;11.02;9.98;;;11.50;99.90;;;;;;6105997;23;20448;-77
2022/07/24 03:40:06;;;;;;;10.68;9.98;;;11.30;99.90;;;;;;6138197;23;20033;-77
2022/07/24 03:42:33;;;;;;;10.55;9.85;;;11.30;99.90;;;;;;6129266;23;20032;-77
2022/07/24 03:45:00;;;;;;;10.52;9.52;;;11.20;99.90;;;;;;6085468;23;20027;-77
2022/07/24 03:47:27;;;;;;;10.45;9.75;;;11.10;99.90;;;;;;6110090;23;20035;-80
2022/07/24 03:49:53;;;;;;;10.43;9.57;;;11.10;99.90;;;;;;6107550;23;20534;-78
2022/07/24 03:52:21;;;;;;;10.98;10.18;;;11.10;99.90;;;;;;6112628;23;20480;-77
2022/07/24 03:54:50;;;;;;;11.07;10.38;;;11.10;99.90;;;;;;6133223;23;20035;-78
2022/07/24 03:57:17;;;;;;;10.88;10.00;;;11.00;99.90;;;;;;6118423;23;20039;-81
2022/07/24 03:59:44;;;;;;;11.55;10.70;;;11.00;99.90;;;;;;6128772;23;20027;-79
2022/07/24 04:02:11;;;;;;;10.55;9.75;;;11.10;99.90;;;;;;6160686;23;20095;-81
2022/07/24 04:04:39;;;;;;;11.65;10.85;;;11.20;99.90;;;;;;6146612;23;20019;-80
2022/07/24 04:07:06;;;;;;;11.43;10.63;;;11.10;99.90;;;;;;6134441;23;20131;-77
2022/07/24 04:09:32;;;;;;;10.75;9.85;;;11.20;99.90;;;;;;6089485;23;20039;-77
2022/07/24 04:12:00;;;;;;;10.90;10.00;;;11.10;99.90;;;;;;6084100;23;20085;-77
2022/07/24 04:14:27;;;;;;;11.55;10.52;;;11.30;99.90;;;;;;6113004;23;20442;-77
2022/07/24 04:16:54;;;;;;;10.80;10.00;;;11.30;99.90;;;;;;6116423;23;20031;-77
2022/07/24 04:19:21;;;;;;;9.50;8.70;;;11.40;99.90;;;;;;6140616;23;20032;-78
2022/07/24 04:21:47;;;;;;;10.80;9.80;;;11.50;99.90;;;;;;6138653;23;20032;-78
2022/07/24 04:24:15;;;;;;;10.80;9.82;;;11.60;99.90;;;;;;6135842;23;20036;-79
2022/07/24 04:26:42;;;;;;;10.20;9.40;;;11.60;99.90;;;;;;6115117;23;20606;-78
2022/07/24 04:29:08;;;;;;;10.38;9.48;;;11.50;99.90;;;;;;6113658;23;20493;-77
2022/07/24 04:31:35;;;;;;;10.90;9.95;;;11.50;99.90;;;;;;6121070;23;20066;-78
2022/07/24 04:34:02;;;;;;;9.73;8.95;;;11.50;99.90;;;;;;6153230;23;20377;-79
2022/07/24 04:36:29;;;;;;;10.35;9.48;;;11.60;99.90;;;;;;6091375;23;20039;-77
2022/07/24 04:38:56;;;;;;;11.13;9.50;;;11.60;99.90;;;;;;6140086;23;20023;-77
2022/07/24 04:41:23;;;;;;;11.23;10.15;;;11.70;99.90;;;;;;6138622;23;20033;-79
2022/07/24 04:43:50;;;;;;;11.25;10.27;;;11.90;99.90;;;;;;6138937;23;20038;-80
2022/07/24 04:46:18;;;;;;;11.57;10.57;;;12.00;99.90;;;;;;6111758;23;20095;-81
2022/07/24 04:48:45;;;;;;;13.23;11.98;;;12.00;99.90;;;;;;6114682;23;20035;-79
2022/07/24 04:51:12;;;;;;;12.80;11.70;;;12.10;99.90;;;;;;6112488;23;20035;-78
2022/07/24 04:53:38;;;;;;;11.38;10.50;;;12.20;99.90;;;;;;6111965;23;20089;-81
2022/07/24 04:56:06;;;;;;;13.50;12.20;;;12.30;99.90;;;;;;6111689;23;20519;-77
2022/07/24 04:58:33;;;;;;;10.98;9.95;;;12.50;99.90;;;;;;6109553;23;20473;-78
2022/07/24 05:01:00;;;;;;;11.60;10.60;;;12.50;99.90;;;;;;6140127;23;20053;-80
2022/07/24 05:03:27;;;;;;;12.40;11.30;;;12.60;99.90;;;;;;6121611;23;20114;-80
2022/07/24 05:05:54;;;;;;;11.63;10.68;;;12.80;99.90;;;;;;6114261;23;20373;-79
2022/07/24 05:08:21;;;;;;;11.52;10.52;;;12.90;99.90;;;;;;6114951;23;20165;-79
2022/07/24 05:10:48;;;;;;;11.88;10.88;;;13.30;99.90;;;;;;6088922;23;20393;-79
2022/07/24 05:13:15;;;;;;;11.75;10.75;;;13.60;99.90;;;;;;6110079;23;20253;-79
2022/07/24 05:15:42;;;;;;;13.40;12.43;;;13.90;99.90;;;;;;6112565;23;20051;-78
2022/07/24 05:18:09;;;;;;;14.52;13.40;;;14.40;99.90;;;;;;6143136;23;20193;-79
2022/07/24 05:20:36;;;;;;;14.75;13.75;;;14.80;99.90;;;;;;5563970;22;20406;-70
2022/07/24 05:23:03;;;;;;;16.55;15.45;;;15.30;99.90;;;;;;5066414;28;20440;-71
2022/07/24 05:25:30;;;;;;;17.20;16.20;;;15.80;99.90;;;;;;5065460;28;20126;-71
2022/07/24 05:27:58;;;;;;;17.50;16.40;;;16.30;99.90;;;;;;5036794;28;20044;-70
2022/07/24 05:30:24;;;;;;;18.33;17.02;;;16.80;99.90;;;;;;5033987;28;20036;-70
2022/07/24 05:32:51;;;;;;;18.73;17.73;;;17.20;99.90;;;;;;5056216;28;20418;-71
2022/07/24 05:35:18;;;;;;;19.40;18.20;;;17.60;99.90;;;;;;5049825;28;20095;-70
2022/07/24 05:37:54;;;;;;;18.88;17.88;;;17.80;99.90;;;;;;5039344;28;20473;-71
2022/07/24 05:40:21;;;;;;;18.95;17.95;;;18.00;99.90;;;;;;5037992;28;20040;-71
2022/07/24 05:42:48;;;;;;;20.20;19.00;;;18.20;99.90;;;;;;5057451;28;20084;-70
2022/07/24 05:45:15;;;;;;;19.45;18.30;;;18.40;99.90;;;;;;5053313;28;20098;-70
2022/07/24 05:47:42;;;;;;;20.15;19.05;;;18.40;99.90;;;;;;5041677;28;20036;-71
2022/07/24 05:50:11;;;;;;;20.13;18.83;;;18.90;99.90;;;;;;5054091;28;20076;-70
2022/07/24 05:52:38;;;;;;;20.10;18.90;;;19.50;99.90;;;;;;5055230;28;20135;-71
2022/07/24 05:55:06;;;;;;;20.23;18.83;;;19.60;99.90;;;;;;5021313;28;20379;-71
2022/07/24 05:57:42;;;;;;;20.17;19.00;;;19.80;99.90;;;;;;5037408;28;20319;-71
2022/07/24 06:00:09;;;;;;;20.55;19.45;;;20.10;99.90;;;;;;5051796;28;20049;-70
2022/07/24 06:02:43;;;;;;;20.55;19.27;;;20.40;99.90;;;;;;5054106;28;20037;-71
2022/07/24 06:05:09;;;;;;;20.27;19.02;;;20.70;99.90;;;;;;5033496;28;21202;-71
2022/07/24 06:07:36;;;;;;;19.73;18.50;;;21.00;99.90;;;;;;5052687;28;21338;-71
2022/07/24 06:10:04;;;;;;;21.10;19.70;;;21.20;99.90;;;;;;5057618;28;20198;-71
2022/07/24 06:12:33;;;;;;;20.98;19.77;;;21.20;99.90;;;;;;5053680;28;20610;-71
2022/07/24 06:15:00;;;;;;;20.30;19.02;;;21.20;99.90;;;;;;5037231;28;20517;-71
2022/07/24 06:17:27;;;;;;;20.45;19.25;;;21.30;99.90;;;;;;5032630;28;20542;-71
2022/07/24 06:19:54;;;;;;;20.45;19.25;;;21.40;99.90;;;;;;5053967;28;20497;-70
2022/07/24 06:22:21;;;;;;;20.63;19.45;;;21.50;99.90;;;;;;5038230;28;20067;-71
2022/07/24 06:24:47;;;;;;;21.45;20.15;;;21.70;99.90;;;;;;5059853;28;20442;-70
2022/07/24 06:27:14;;;;;;;21.75;20.55;;;21.40;99.90;;;;;;5040380;28;20143;-70
2022/07/24 06:29:41;;;;;;;21.42;20.23;;;21.50;99.90;;;;;;5055488;28;20321;-70
2022/07/24 06:32:08;;;;;;;21.55;20.33;;;21.60;99.90;;;;;;5054651;28;20557;-70
2022/07/24 06:34:34;;;;;;;23.10;21.50;;;21.60;99.90;;;;;;5039710;28;20101;-71
2022/07/24 06:37:01;;;;;;;23.30;21.90;;;21.80;99.90;;;;;;5042150;28;20048;-70
2022/07/24 06:39:28;;;;;;;23.17;21.50;;;21.80;99.90;;;;;;5057680;28;20128;-71
2022/07/24 06:41:55;;;;;;;21.63;20.42;;;21.80;99.90;;;;;;5038732;28;20517;-71
2022/07/24 06:44:24;;;;;;;22.30;20.95;;;22.00;99.90;;;;;;5056536;28;20036;-71
2022/07/24 06:46:51;;;;;;;22.08;20.77;;;22.00;99.90;;;;;;5038883;22;20525;-78
2022/07/24 06:49:18;;;;;;;22.25;21.08;;;22.10;99.90;;;;;;5074780;28;20055;-78
2022/07/24 06:51:47;;;;;;;21.63;20.52;;;22.50;99.90;;;;;;5075480;28;20075;-76
2022/07/24 06:54:14;;;;;;;22.70;20.95;;;22.70;99.90;;;;;;5069045;28;20055;-77
2022/07/24 06:56:41;;;;;;;22.05;20.75;;;22.90;99.90;;;;;;5063064;28;20114;-77
2022/07/24 06:59:08;;;;;;;22.42;21.02;;;23.10;99.90;;;;;;5054891;28;20041;-78
2022/07/24 07:01:35;;;;;;;22.60;21.40;;;23.30;99.90;;;;;;5052349;28;20114;-78
2022/07/24 07:04:01;;;;;;;22.73;21.38;;;23.10;99.90;;;;;;5053432;28;20055;-77
2022/07/24 07:06:28;;;;;;;21.88;20.63;;;23.10;99.90;;;;;;5051766;28;20804;-77
2022/07/24 07:08:55;;;;;;;22.23;20.85;;;23.40;99.90;;;;;;5058085;28;20053;-76
2022/07/24 07:11:22;;;;;;;22.65;21.10;;;23.40;99.90;;;;;;5031619;28;20041;-76
2022/07/24 07:13:49;;;;;;;22.75;21.13;;;23.50;99.90;;;;;;5054658;28;20048;-75
2022/07/24 07:16:15;;;;;;;21.50;20.10;;;23.70;99.90;;;;;;5051296;28;20093;-76
2022/07/24 07:18:42;;;;;;;21.95;20.73;;;23.90;99.90;;;;;;5052685;28;20045;-76
2022/07/24 07:21:09;;;;;;;21.88;20.50;;;23.80;99.90;;;;;;5050046;28;20040;-76
2022/07/24 07:23:36;;;;;;;22.55;21.35;;;23.90;99.90;;;;;;5052991;28;20048;-76
2022/07/24 07:26:03;;;;;;;22.30;21.00;;;24.10;99.90;;;;;;5049529;28;20122;-77
2022/07/24 07:28:29;;;;;;;21.90;20.70;;;24.00;99.90;;;;;;5053692;28;20447;-76
2022/07/24 07:30:56;;;;;;;21.70;20.60;;;24.00;99.90;;;;;;5045037;28;20636;-75
2022/07/24 07:33:23;;;;;;;22.00;20.80;;;24.50;99.90;;;;;;5050864;28;20041;-77
2022/07/24 07:35:50;;;;;;;22.20;20.90;;;24.70;99.90;;;;;;5054935;28;20048;-76
2022/07/24 07:38:17;;;;;;;23.05;21.70;;;24.90;99.90;;;;;;5050818;28;20110;-77
2022/07/24 07:40:49;;;;;;;22.73;21.52;;;24.70;99.90;;;;;;5053158;28;20055;-76
2022/07/24 07:43:15;;;;;;;22.85;21.55;;;24.90;99.90;;;;;;5044163;28;20049;-76
2022/07/24 07:45:42;;;;;;;22.65;21.35;;;25.10;99.90;;;;;;5051010;28;20043;-75
2022/07/24 07:48:09;;;;;;;23.27;22.02;;;25.10;99.90;;;;;;5041223;28;20083;-76
2022/07/24 07:50:36;;;;;;;23.77;22.15;;;24.70;99.90;;;;;;5050879;28;20276;-77
2022/07/24 07:53:03;;;;;;;23.08;21.77;;;24.70;99.90;;;;;;5047460;28;20549;-76
2022/07/24 07:55:30;;;;;;;22.83;21.50;;;25.20;99.90;;;;;;5053756;28;20130;-76
2022/07/24 07:57:56;;;;;;;23.70;22.20;;;25.40;99.90;;;;;;5053405;28;20102;-76
2022/07/24 08:00:33;;;;;;;23.85;22.45;;;25.40;99.90;;;;;;5049620;28;20569;-77
2022/07/24 08:03:00;;;;;;;22.67;21.27;;;25.60;99.90;;;;;;5053655;28;20051;-76
2022/07/24 08:05:27;;;;;;;23.58;22.27;;;26.00;99.90;;;;;;5041413;28;20131;-76
2022/07/24 08:07:53;;;;;;;24.00;22.60;;;26.20;99.90;;;;;;5052817;28;20068;-76
2022/07/24 08:10:21;;;;;;;24.10;22.38;;;26.40;99.90;;;;;;5044308;28;20091;-77
2022/07/24 08:12:48;;;;;;;25.75;24.17;;;26.60;99.90;;;;;;5042886;28;20330;-76
2022/07/24 08:15:15;;;;;;;24.08;22.65;;;26.60;99.90;;;;;;5042835;28;20494;-77
2022/07/24 08:17:42;;;;;;;24.73;23.02;;;26.70;99.90;;;;;;5049655;28;20086;-76
2022/07/24 08:20:10;;;;;;;25.77;24.02;;;26.50;99.90;;;;;;5052448;28;20042;-76
2022/07/24 08:22:37;;;;;;;24.50;22.80;;;26.40;99.90;;;;;;5050301;28;20710;-76
2022/07/24 08:25:04;;;;;;;26.70;24.73;;;26.50;99.90;;;;;;5046757;28;20051;-76
2022/07/24 08:27:35;;;;;;;25.25;23.75;;;26.50;99.90;;;;;;5047441;28;20492;-76
2022/07/24 08:30:05;;;;;;;25.52;23.92;;;26.50;99.90;;;;;;5019678;28;20107;-76
2022/07/24 08:32:32;;;;;;;25.15;23.65;;;26.50;99.90;;;;;;5045019;28;20056;-77
2022/07/24 08:34:59;;;;;;;25.20;23.40;;;26.60;99.90;;;;;;5052421;28;20056;-76
2022/07/24 08:37:26;;;;;;;25.75;24.15;;;27.00;99.90;;;;;;5042470;28;20130;-76
2022/07/24 08:39:54;;;;;;;25.85;24.27;;;27.20;99.90;;;;;;5046915;28;20094;-77
2022/07/24 08:42:21;;;;;;;26.30;24.80;;;27.00;99.90;;;;;;5049476;28;20032;-76
2022/07/24 08:44:48;;;;;;;25.95;24.25;;;27.00;99.90;;;;;;5039009;28;20407;-77
2022/07/24 08:47:15;;;;;;;25.27;23.70;;;27.30;99.90;;;;;;5048064;28;20065;-76
2022/07/24 08:49:46;;;;;;;26.42;24.63;;;27.60;99.90;;;;;;5052101;28;20114;-76
2022/07/24 08:52:15;;;;;;;26.17;24.55;;;27.20;99.90;;;;;;5044393;28;20541;-76
2022/07/24 08:54:42;;;;;;;27.92;26.13;;;27.20;99.90;;;;;;5055127;28;20049;-76
2022/07/24 08:57:09;;;;;;;27.00;25.40;;;27.40;99.90;;;;;;5048741;28;20048;-76
2022/07/24 08:59:35;;;;;;;26.02;24.38;;;27.70;99.90;;;;;;5052841;28;20433;-77
2022/07/24 09:02:02;;;;;;;27.40;25.70;;;28.00;99.90;;;;;;5030915;28;20055;-77
2022/07/24 09:04:38;;;;;;;27.83;26.00;;;28.20;99.90;;;;;;5053536;28;20483;-77
2022/07/24 09:07:08;;;;;;;27.50;25.88;;;28.30;99.90;;;;;;5044933;28;20064;-77
2022/07/24 09:09:37;;;;;;;29.25;27.27;;;28.10;99.90;;;;;;5050996;28;20474;-78
2022/07/24 09:12:10;;;;;;;29.05;26.77;;;27.80;99.90;;;;;;5045848;28;20052;-77
2022/07/24 09:14:40;;;;;;;28.13;26.42;;;28.10;99.90;;;;;;5043310;28;20578;-77
2022/07/24 09:17:15;;;;;;;28.08;26.38;;;28.30;99.90;;;;;;5055306;28;20041;-77
2022/07/24 09:19:51;;;;;;;30.00;28.20;;;28.50;99.90;;;;;;5050028;28;20036;-78
2022/07/24 09:22:36;;;;;;;28.42;26.52;;;28.40;99.90;;;;;;5049588;28;20040;-78
2022/07/24 09:25:10;;;;;;;30.25;28.35;;;28.20;99.90;;;;;;5041690;28;20056;-78
2022/07/24 09:27:58;;;;;;;30.15;28.15;;;28.30;99.90;;;;;;5053493;28;20740;-77
2022/07/24 09:30:32;;;;;;;27.90;26.30;;;28.40;99.90;;;;;;5050494;28;20144;-77
2022/07/24 09:33:12;;;;;;;29.95;27.85;;;28.40;99.90;;;;;;5043480;28;20052;-77
2022/07/24 09:35:45;;;;;;;28.65;26.75;;;28.10;99.90;;;;;;5036343;28;20040;-78
2022/07/24 09:38:17;;;;;;;30.15;28.15;;;28.40;99.90;;;;;;5047669;28;20552;-77
2022/07/24 09:40:56;;;;;;;30.02;28.02;;;28.50;99.90;;;;;;5055309;28;20127;-77
2022/07/24 09:43:28;;;;;;;31.17;29.15;;;28.60;99.90;;;;;;5043817;28;20175;-76
2022/07/24 09:46:00;;;;;;;30.38;28.48;;;28.90;99.90;;;;;;5065800;28;20064;-76
2022/07/24 09:48:34;;;;;;;30.90;28.92;;;29.00;99.90;;;;;;5061096;28;20117;-76
2022/07/24 09:51:05;;;;;;;30.27;28.33;;;28.40;99.90;;;;;;5058985;28;20069;-76
2022/07/24 09:53:36;;;;;;;30.65;28.60;;;28.30;99.90;;;;;;5057475;28;20063;-77
2022/07/24 09:56:17;;;;;;;30.90;28.63;;;28.20;99.90;;;;;;5069061;28;20041;-78
2022/07/24 09:58:44;;;;;;;30.92;29.08;;;28.40;99.90;;;;;;5068903;28;20098;-78
2022/07/24 10:01:13;;;;;;;31.45;29.42;;;28.70;99.90;;;;;;5066893;28;20069;-77
2022/07/24 10:03:42;;;;;;;31.70;29.45;;;29.00;99.90;;;;;;5055728;28;20040;-77
2022/07/24 10:06:17;;;;;;;31.50;29.35;;;29.10;99.90;;;;;;5049376;28;20048;-78
2022/07/24 10:08:46;;;;;;;31.90;29.83;;;29.30;99.90;;;;;;5055622;28;20044;-78
2022/07/24 10:11:14;;;;;;;31.83;29.77;;;29.50;99.90;;;;;;5063438;28;20127;-78
2022/07/24 10:13:42;;;;;;;31.95;29.80;;;29.50;99.90;;;;;;5056308;28;20051;-77
2022/07/24 10:16:12;;;;;;;32.20;29.95;;;29.30;99.90;;;;;;5070449;28;20106;-77
2022/07/24 10:18:58;;;;;;;32.53;30.35;;;29.50;99.90;;;;;;5067999;28;20048;-76
2022/07/24 10:21:51;;;;;;;32.53;30.42;;;29.60;99.90;;;;;;5063277;28;20082;-77
2022/07/24 10:24:47;;;;;;;31.83;29.73;;;29.30;99.90;;;;;;5061492;28;20098;-77
2022/07/24 10:27:33;;;;;;;33.70;31.20;;;29.10;99.90;;;;;;5048195;28;20045;-77
2022/07/24 10:30:10;;;;;;;;;;;29.30;99.90;;;;;;5042457;28;20176;-78
2022/07/24 10:32:38;;;;;;;31.58;29.52;;;29.70;99.90;;;;;;5066181;28;20664;-78
2022/07/24 10:35:21;;;;;;;31.23;29.23;;;29.70;99.90;;;;;;5050017;28;20044;-77
2022/07/24 10:38:09;;;;;;;30.35;28.42;;;29.60;99.90;;;;;;5057827;28;20091;-78
2022/07/24 10:40:51;;;;;;;32.05;29.85;;;29.30;99.90;;;;;;5050245;28;21298;-78
2022/07/24 10:43:20;;;;;;;31.05;29.17;;;29.20;99.90;;;;;;5065305;28;20041;-78
2022/07/24 10:46:07;;;;;;;30.95;28.75;;;29.40;99.90;;;;;;5059313;28;20106;-78
2022/07/24 10:48:39;;;;;;;31.60;29.60;;;29.40;99.90;;;;;;5034671;28;20070;-76
2022/07/24 10:51:13;;;;;;;31.45;29.27;;;29.30;99.90;;;;;;5053054;28;20504;-77
2022/07/24 10:53:45;;;;;;;32.33;30.05;;;29.20;99.90;;;;;;5050472;28;20318;-77
2022/07/24 10:56:18;;;;;;;31.90;29.50;;;29.30;99.90;;;;;;5053030;28;20274;-79
2022/07/24 10:59:12;;;;;;;29.60;27.60;;;29.70;99.90;;;;;;5069065;28;20468;-77
2022/07/24 11:01:47;;;;;;;32.90;30.80;;;29.70;99.90;;;;;;5043545;28;20037;-77
2022/07/24 11:04:20;;;;;;;33.20;31.20;;;29.80;99.90;;;;;;5051544;28;20490;-77
2022/07/24 11:07:07;;;;;;;32.95;30.75;;;29.60;99.90;;;;;;5049940;28;20082;-77
2022/07/24 11:09:59;;;;;;;33.50;31.30;;;29.30;99.90;;;;;;5036927;28;20044;-77
2022/07/24 11:12:31;;;;;;;33.28;31.08;;;29.50;99.90;;;;;;5052669;28;20758;-76
2022/07/24 11:17:52;;;;;;;34.42;31.95;;;29.70;99.90;;;;;;5050254;28;20052;-78
2022/07/24 11:20:21;;;;;;;33.20;31.10;;;29.60;99.90;;;;;;5051860;28;20488;-77
2022/07/24 11:22:53;;;;;;;32.70;30.60;;;29.90;99.90;;;;;;5052868;28;20525;-78
2022/07/24 11:25:25;;;;;;;33.40;31.15;;;30.20;99.70;;;;;;5048450;28;20530;-77
2022/07/24 11:28:12;;;;;;;34.15;32.05;;;30.20;99.90;;;;;;5046186;28;20399;-76
2022/07/24 11:30:44;;;;;;;33.78;31.20;;;30.10;99.90;;;;;;5053407;28;20040;-77
2022/07/24 11:33:12;;;;;;;34.38;32.08;;;30.00;99.90;;;;;;5058719;28;20384;-76
2022/07/24 11:35:39;;;;;;;33.42;31.27;;;29.90;99.90;;;;;;5044247;28;20161;-76
2022/07/24 11:38:07;;;;;;;33.95;31.70;;;30.10;99.90;;;;;;5050458;28;20041;-77
2022/07/24 11:40:35;;;;;;;31.55;29.58;;;30.20;99.90;;;;;;5038520;28;20106;-77
2022/07/24 11:43:08;;;;;;;33.90;31.80;;;30.40;99.90;;;;;;5039997;28;20052;-76
2022/07/24 11:45:38;;;;;;;33.05;30.85;;;30.10;99.60;;;;;;5050719;28;20730;-76
2022/07/24 11:48:06;;;;;;;33.75;31.65;;;30.00;99.90;;;;;;5051494;28;20048;-77
2022/07/24 11:50:34;;;;;;;33.28;31.27;;;30.10;99.90;;;;;;5047750;28;20545;-77
2022/07/24 11:53:06;;;;;;;34.25;32.20;;;29.90;99.90;;;;;;5052461;28;20067;-77
2022/07/24 11:55:33;;;;;;;32.83;30.73;;;29.80;99.90;;;;;;5048319;28;20064;-77
2022/07/24 11:58:00;;;;;;;33.60;31.60;;;29.90;99.90;;;;;;5045348;28;20040;-76
2022/07/24 12:00:46;;;;;;;33.95;31.70;;;30.10;99.90;;;;;;5042147;28;20079;-77
2022/07/24 12:03:14;;;;;;;34.80;32.30;;;30.10;99.90;;;;;;5043106;28;20275;-77
2022/07/24 12:05:41;;;;;;;33.85;31.80;;;30.40;99.90;;;;;;5038693;28;20703;-76
2022/07/24 12:08:24;;;;;;;32.05;30.15;;;30.40;99.90;;;;;;5036507;28;20053;-76
2022/07/24 12:10:57;;;;;;;34.63;32.22;;;30.50;99.90;;;;;;5050377;28;20044;-76
2022/07/24 12:13:24;;;;;;;34.55;32.47;;;30.30;99.10;;;;;;5043664;28;20596;-77
2022/07/24 12:15:51;;;;;;;33.75;31.75;;;30.30;99.20;;;;;;5055164;28;20056;-78
2022/07/24 12:18:18;;;;;;;33.67;31.48;;;30.50;99.60;;;;;;5053003;28;20110;-77
2022/07/24 12:20:58;;;;;;;35.60;33.40;;;30.30;98.30;;;;;;5058489;28;20267;-77
2022/07/24 12:23:34;;;;;;;34.80;32.38;;;30.00;98.70;;;;;;5041275;28;20048;-76
2022/07/24 12:26:01;;;;;;;33.70;31.60;;;30.10;99.30;;;;;;5047212;28;20160;-76
2022/07/24 12:28:28;;;;;;;34.45;32.38;;;30.00;99.90;;;;;;5032405;28;20099;-77
2022/07/24 12:30:55;;;;;;;33.80;31.52;;;29.90;98.40;;;;;;5051992;28;20531;-76
2022/07/24 12:33:29;;;;;;;34.10;32.10;;;29.90;98.60;;;;;;5043326;28;20045;-76
2022/07/24 12:35:58;;;;;;;34.38;32.08;;;29.80;99.90;;;;;;5030331;28;20415;-76
2022/07/24 12:38:51;;;;;;;33.20;31.10;;;29.90;98.70;;;;;;5039123;28;20127;-76
2022/07/24 12:41:22;;;;;;;33.30;31.30;;;30.10;99.00;;;;;;5044885;28;20049;-75